Time;durP1;ratioP1;P1;durP2;ratioP2;P2;SDS_P1;SDS_P2;PMS_P1;PMS_P2;Temp;Humidity;BMP_temperature;BMP_pressure;BME280_temperature;BME280_humidity;BME280_pressure;Samples;Min_cycle;Max_cycle;Signal;HPM_P1;HPM_P2
2021/12/25 00:01:13;;;;;;;4.10;0.90;;;-0.30;99.90;;;;;;5019911;28;20132;-91
2021/12/25 00:03:56;;;;;;;4.18;0.93;;;-0.30;99.90;;;;;;5021990;28;20525;-91
2021/12/25 00:06:28;;;;;;;4.43;1.10;;;-0.30;99.90;;;;;;5036739;28;20041;-91
2021/12/25 00:09:04;;;;;;;3.90;0.98;;;-0.40;99.90;;;;;;5030578;28;20053;-91
2021/12/25 00:11:38;;;;;;;8.75;1.00;;;-0.40;99.90;;;;;;5029804;28;20399;-91
2021/12/25 00:14:39;;;;;;;4.60;0.60;;;-0.30;99.90;;;;;;5018291;28;20040;-90
2021/12/25 00:17:11;;;;;;;3.28;0.60;;;-0.40;99.90;;;;;;5015380;28;20040;-89
2021/12/25 00:19:36;;;;;;;5.80;0.85;;;-0.50;99.90;;;;;;5005167;28;20426;-90
2021/12/25 00:22:02;;;;;;;6.83;1.13;;;-0.40;99.90;;;;;;5011505;28;20029;-91
2021/12/25 00:24:28;;;;;;;4.40;0.90;;;-0.50;99.90;;;;;;5010216;28;20041;-90
2021/12/25 00:27:09;;;;;;;3.50;0.80;;;-0.50;99.90;;;;;;5023110;28;20295;-88
2021/12/25 00:34:44;;;;;;;5.00;0.90;;;-0.60;99.90;;;;;;5022474;28;20128;-89
2021/12/25 00:37:31;;;;;;;;;;;-0.60;99.90;;;;;;5002364;28;20026;-89
2021/12/25 00:40:24;;;;;;;;;;;;;;;;;;;;;
2021/12/25 00:42:50;;;;;;;1.33;0.73;;;-0.70;99.90;;;;;;5027791;28;20041;-88
2021/12/25 00:45:27;;;;;;;6.70;0.60;;;-0.70;99.90;;;;;;5029288;28;20102;-89
2021/12/25 00:48:38;;;;;;;2.45;0.68;;;-0.70;99.90;;;;;;4979494;28;20057;-90
2021/12/25 00:51:26;;;;;;;4.82;0.60;;;-0.70;99.90;;;;;;4964043;28;20033;-89
2021/12/25 00:53:52;;;;;;;3.25;1.60;;;-0.80;99.90;;;;;;5005309;28;20093;-87
2021/12/25 00:56:18;;;;;;;3.93;0.90;;;-0.80;99.90;;;;;;5022331;28;20078;-88
2021/12/25 00:58:49;;;;;;;3.67;0.73;;;-0.80;99.90;;;;;;5046032;28;20029;-88
2021/12/25 01:01:33;;;;;;;4.40;0.50;;;-0.80;99.90;;;;;;5004047;28;20029;-88
2021/12/25 01:04:10;;;;;;;2.55;0.80;;;-0.90;99.90;;;;;;5010504;28;20206;-88
2021/12/25 01:06:49;;;;;;;2.28;0.40;;;-0.90;99.90;;;;;;4998530;28;20038;-88
2021/12/25 01:09:27;;;;;;;4.78;0.98;;;-1.00;99.90;;;;;;5009039;28;20037;-88
2021/12/25 01:11:56;;;;;;;6.30;0.50;;;-0.90;99.90;;;;;;5007922;28;20041;-89
2021/12/25 01:25:58;;;;;;;4.28;0.60;;;-1.10;99.90;;;;;;5019672;28;20053;-89
2021/12/25 01:31:45;;;;;;;4.03;1.13;;;-1.20;99.90;;;;;;4946654;28;20540;-88
2021/12/25 01:34:54;;;;;;;3.33;0.50;;;-1.20;99.90;;;;;;4999680;28;20388;-89
2021/12/25 01:37:36;;;;;;;3.83;0.60;;;-1.20;99.90;;;;;;5021864;28;20474;-88
2021/12/25 01:48:19;;;;;;;2.53;0.65;;;-1.40;99.90;;;;;;5024620;28;20128;-88
2021/12/25 01:50:47;;;;;;;2.80;0.80;;;-1.30;99.90;;;;;;5030619;28;20123;-87
2021/12/25 01:53:21;;;;;;;2.80;0.60;;;-1.40;99.90;;;;;;5038074;28;20041;-87
2021/12/25 01:56:02;;;;;;;;;;;;;;;;;;;;;
2021/12/25 01:58:36;;;;;;;2.65;0.73;;;-1.50;99.90;;;;;;5027230;28;20114;-86
2021/12/25 02:01:07;;;;;;;1.70;0.63;;;-1.50;99.90;;;;;;5016255;28;20241;-87
2021/12/25 02:03:35;;;;;;;1.63;0.40;;;-1.60;99.90;;;;;;5026498;28;20106;-87
2021/12/25 02:06:04;;;;;;;3.42;0.40;;;-1.60;99.90;;;;;;5026209;28;20430;-87
2021/12/25 02:08:33;;;;;;;2.10;0.43;;;-1.60;99.90;;;;;;5011961;28;20033;-87
2021/12/25 02:10:59;;;;;;;3.60;0.57;;;-1.60;99.90;;;;;;5015261;28;20450;-88
2021/12/25 02:13:30;;;;;;;3.70;0.40;;;-1.70;99.90;;;;;;5030420;28;20037;-87
2021/12/25 02:15:57;;;;;;;0.80;0.30;;;-1.70;99.90;;;;;;5025883;28;20051;-88
2021/12/25 02:21:26;;;;;;;1.63;0.43;;;-1.70;99.90;;;;;;5027989;28;20168;-88
2021/12/25 02:23:54;;;;;;;1.92;0.50;;;-1.80;99.90;;;;;;5023147;28;20068;-87
2021/12/25 02:26:31;;;;;;;1.13;0.82;;;-1.80;99.90;;;;;;5009935;28;20036;-89
2021/12/25 02:28:57;;;;;;;1.48;0.52;;;-1.80;99.90;;;;;;5016126;28;20041;-87
2021/12/25 02:31:36;;;;;;;4.80;0.50;;;-1.90;99.90;;;;;;5011230;28;20046;-87
2021/12/25 02:34:02;;;;;;;1.58;0.38;;;-1.90;99.90;;;;;;5041379;28;20305;-87
2021/12/25 02:36:31;;;;;;;1.40;0.70;;;-1.90;99.90;;;;;;5012829;28;20043;-87
2021/12/25 02:38:59;;;;;;;4.85;0.77;;;-2.00;99.90;;;;;;5028137;28;20068;-87
2021/12/25 02:41:35;;;;;;;2.42;0.88;;;-2.00;99.90;;;;;;5029257;28;20090;-86
2021/12/25 02:44:06;;;;;;;4.60;0.90;;;-1.90;99.90;;;;;;5030263;28;20041;-87
2021/12/25 02:46:41;;;;;;;2.80;0.75;;;-2.00;99.90;;;;;;5004097;28;20034;-87
2021/12/25 02:49:13;;;;;;;4.10;1.02;;;-2.00;99.90;;;;;;5026885;28;20033;-87
2021/12/25 02:51:42;;;;;;;6.10;1.30;;;-2.00;99.90;;;;;;5026513;28;20041;-87
2021/12/25 02:54:14;;;;;;;3.03;0.50;;;-2.10;99.90;;;;;;5031382;28;20025;-87
2021/12/25 02:56:42;;;;;;;2.57;1.23;;;-2.00;99.90;;;;;;5025462;28;20040;-87
2021/12/25 02:59:28;;;;;;;6.57;1.02;;;-2.10;99.90;;;;;;5020775;28;20052;-87
2021/12/25 03:01:56;;;;;;;2.97;1.02;;;-2.20;99.90;;;;;;5013838;28;20044;-86
2021/12/25 03:04:24;;;;;;;6.43;2.20;;;-2.20;99.90;;;;;;5007448;28;20037;-86
2021/12/25 03:07:04;;;;;;;7.85;2.53;;;-2.20;99.90;;;;;;5022769;28;20041;-84
2021/12/25 03:09:32;;;;;;;2.75;1.75;;;-2.30;99.90;;;;;;5029463;28;20037;-86
2021/12/25 03:11:59;;;;;;;5.05;1.85;;;-2.30;99.90;;;;;;5013922;28;20531;-87
2021/12/25 03:14:50;;;;;;;6.03;1.40;;;-2.30;99.90;;;;;;5010862;28;20090;-86
2021/12/25 03:17:20;;;;;;;3.70;1.10;;;-2.30;99.90;;;;;;5024565;28;20033;-86
2021/12/25 03:19:54;;;;;;;1.45;0.80;;;-2.30;99.90;;;;;;5030920;28;20044;-86
2021/12/25 03:25:11;;;;;;;3.88;0.65;;;-2.40;99.90;;;;;;5030094;28;20056;-69
2021/12/25 03:27:39;;;;;;;1.48;0.47;;;-2.40;99.90;;;;;;5004607;28;20099;-68
2021/12/25 03:30:09;;;;;;;2.08;0.43;;;-2.50;99.90;;;;;;5006208;28;20041;-68
2021/12/25 03:32:35;;;;;;;3.30;0.75;;;-2.40;99.90;;;;;;5005203;28;20121;-69
2021/12/25 03:35:01;;;;;;;3.73;0.80;;;-2.50;99.90;;;;;;5004806;28;20337;-69
2021/12/25 03:37:27;;;;;;;0.83;0.33;;;-2.50;99.90;;;;;;5002281;28;20053;-68
2021/12/25 03:39:52;;;;;;;1.10;0.40;;;-2.50;99.90;;;;;;5000020;28;20052;-68
2021/12/25 03:42:18;;;;;;;1.90;0.80;;;-2.50;99.90;;;;;;5004448;28;20401;-70
2021/12/25 03:44:45;;;;;;;0.90;0.38;;;-2.50;99.90;;;;;;5004693;28;20049;-69
2021/12/25 03:47:25;;;;;;;0.43;0.38;;;-2.50;99.90;;;;;;5007224;28;20160;-68
2021/12/25 03:58:08;;;;;;;1.98;0.85;;;-2.60;99.90;;;;;;5001540;28;20438;-69
2021/12/25 04:00:35;;;;;;;3.58;0.38;;;-2.60;99.90;;;;;;5004344;28;20041;-68
2021/12/25 04:03:06;;;;;;;2.90;0.40;;;-2.70;99.90;;;;;;5021708;28;20092;-69
2021/12/25 04:05:34;;;;;;;0.82;0.30;;;-2.70;99.90;;;;;;5018726;28;20042;-69
2021/12/25 04:08:07;;;;;;;0.93;0.35;;;-2.70;99.90;;;;;;5023427;28;20501;-69
2021/12/25 04:10:37;;;;;;;1.85;0.30;;;-2.70;99.90;;;;;;5005473;28;20077;-69
2021/12/25 04:13:06;;;;;;;2.33;0.70;;;-2.70;99.90;;;;;;5004488;28;20418;-69
2021/12/25 04:15:32;;;;;;;2.38;0.20;;;-2.80;99.90;;;;;;5021664;28;20183;-69
2021/12/25 04:17:58;;;;;;;1.30;0.60;;;-2.70;99.90;;;;;;5005706;28;20600;-69
2021/12/25 04:20:24;;;;;;;0.83;0.40;;;-2.80;99.90;;;;;;5008208;28;20041;-70
2021/12/25 04:22:57;;;;;;;0.40;0.23;;;-2.80;99.90;;;;;;5022278;28;20030;-69
2021/12/25 04:25:27;;;;;;;4.32;0.60;;;-2.80;99.90;;;;;;4993462;28;20511;-70
2021/12/25 04:27:55;;;;;;;2.97;0.30;;;-2.80;99.90;;;;;;5020879;28;20402;-69
2021/12/25 04:30:41;;;;;;;1.15;0.40;;;-2.90;99.90;;;;;;5024763;28;20041;-69
2021/12/25 05:05:25;;;;;;;1.37;0.40;;;-3.10;99.90;;;;;;5012222;28;20533;-70
2021/12/25 05:07:51;;;;;;;1.97;0.40;;;-3.10;99.90;;;;;;5017194;28;20120;-69
2021/12/25 05:10:16;;;;;;;0.77;0.30;;;-3.10;99.90;;;;;;5006512;28;20288;-70
2021/12/25 05:12:42;;;;;;;0.53;0.30;;;-3.20;99.90;;;;;;5002983;28;20124;-69
2021/12/25 05:15:08;;;;;;;3.67;0.43;;;-3.20;99.90;;;;;;5006382;28;20308;-69
2021/12/25 05:17:33;;;;;;;0.97;0.30;;;-3.20;99.90;;;;;;5002179;28;20087;-70
2021/12/25 05:19:59;;;;;;;1.70;0.40;;;-3.20;99.90;;;;;;5009637;28;20584;-70
2021/12/25 05:22:25;;;;;;;0.98;0.30;;;-3.20;99.90;;;;;;5007718;28;20268;-70
2021/12/25 05:24:51;;;;;;;1.08;0.32;;;-3.30;99.90;;;;;;5008974;28;20494;-70
2021/12/25 05:27:20;;;;;;;4.47;0.20;;;-3.30;99.90;;;;;;5006260;28;20168;-70
2021/12/25 05:29:47;;;;;;;1.45;0.30;;;-3.30;99.90;;;;;;5009052;28;20124;-69
2021/12/25 05:32:14;;;;;;;0.95;0.47;;;-3.30;99.90;;;;;;5004835;28;20037;-69
2021/12/25 05:34:40;;;;;;;3.20;0.50;;;-3.30;99.90;;;;;;5004640;28;20186;-70
2021/12/25 05:37:06;;;;;;;1.70;0.37;;;-3.30;99.90;;;;;;5021848;28;20504;-69
2021/12/25 05:39:31;;;;;;;1.17;0.32;;;-3.40;99.90;;;;;;5005527;28;20112;-69
2021/12/25 05:41:58;;;;;;;1.40;0.23;;;-3.40;99.90;;;;;;5006294;28;20706;-70
2021/12/25 05:44:25;;;;;;;0.88;0.50;;;-3.40;99.90;;;;;;5025113;28;20442;-70
2021/12/25 05:46:51;;;;;;;1.40;0.40;;;-3.40;99.90;;;;;;4991438;28;20107;-71
2021/12/25 05:49:16;;;;;;;1.17;0.40;;;-3.40;99.90;;;;;;5006784;28;20083;-70
2021/12/25 05:51:42;;;;;;;0.83;0.30;;;-3.40;99.90;;;;;;5005780;28;20469;-70
2021/12/25 05:54:08;;;;;;;0.53;0.17;;;-3.40;99.90;;;;;;5005533;28;20033;-69
2021/12/25 05:56:33;;;;;;;0.43;0.20;;;-3.40;99.90;;;;;;5021215;28;20105;-69
2021/12/25 05:58:59;;;;;;;3.03;0.20;;;-3.50;99.90;;;;;;5007827;28;20429;-70
2021/12/25 06:01:25;;;;;;;2.67;0.40;;;-3.50;99.90;;;;;;5021681;28;21576;-70
2021/12/25 06:03:51;;;;;;;1.55;0.75;;;-3.50;99.90;;;;;;4979693;28;20076;-69
2021/12/25 06:06:16;;;;;;;2.87;0.43;;;-3.50;99.90;;;;;;5003022;28;20037;-69
2021/12/25 06:08:42;;;;;;;0.43;0.20;;;-3.50;99.90;;;;;;5009519;28;20037;-69
2021/12/25 06:11:08;;;;;;;1.00;0.23;;;-3.50;99.90;;;;;;5005373;28;20033;-69
2021/12/25 06:13:38;;;;;;;0.57;0.23;;;-3.60;99.90;;;;;;5021674;28;20053;-69
2021/12/25 06:16:04;;;;;;;2.15;0.47;;;-3.60;99.90;;;;;;5021863;28;20455;-70
2021/12/25 06:18:29;;;;;;;0.63;0.30;;;-3.60;99.90;;;;;;5026175;28;20041;-69
2021/12/25 06:20:55;;;;;;;0.40;0.30;;;-3.60;99.90;;;;;;5023065;28;20037;-69
2021/12/25 06:23:21;;;;;;;6.80;1.03;;;-3.60;99.90;;;;;;5019081;28;20508;-69
2021/12/25 06:25:46;;;;;;;2.50;0.57;;;-3.60;99.90;;;;;;5003599;28;20037;-71
2021/12/25 06:28:12;;;;;;;2.27;0.30;;;-3.60;99.90;;;;;;5006126;28;20041;-70
2021/12/25 06:30:38;;;;;;;1.70;0.50;;;-3.60;99.90;;;;;;5004493;28;20121;-69
2021/12/25 06:33:04;;;;;;;0.90;0.35;;;-3.70;99.90;;;;;;4991164;28;20498;-69
2021/12/25 06:35:31;;;;;;;3.28;0.40;;;-3.70;99.90;;;;;;5000995;28;20407;-69
2021/12/25 06:37:57;;;;;;;5.03;1.02;;;-3.70;99.90;;;;;;5007188;28;20056;-69
2021/12/25 06:40:23;;;;;;;0.73;0.40;;;-3.70;99.90;;;;;;5018577;28;20441;-70
2021/12/25 06:42:49;;;;;;;0.30;0.30;;;-3.80;99.90;;;;;;5023696;28;20053;-70
2021/12/25 06:45:15;;;;;;;0.83;0.37;;;-3.80;99.90;;;;;;5008267;28;20355;-70
2021/12/25 06:47:40;;;;;;;2.28;0.30;;;-3.80;99.90;;;;;;5025354;28;20158;-71
2021/12/25 06:50:08;;;;;;;0.87;0.20;;;-3.80;99.90;;;;;;5019609;28;20065;-71
2021/12/25 06:52:35;;;;;;;2.38;0.40;;;-3.80;99.90;;;;;;5004423;28;20117;-70
2021/12/25 06:55:00;;;;;;;0.40;0.30;;;-3.80;99.90;;;;;;5023699;28;20033;-69
2021/12/25 06:57:28;;;;;;;0.90;0.40;;;-3.80;99.90;;;;;;5021750;28;20036;-70
2021/12/25 06:59:54;;;;;;;0.22;0.20;;;-3.80;99.90;;;;;;5022098;28;20055;-69
2021/12/25 07:02:19;;;;;;;1.00;0.30;;;-3.80;99.90;;;;;;5002906;28;20037;-70
2021/12/25 07:04:45;;;;;;;2.07;0.30;;;-3.80;99.90;;;;;;5020206;28;20129;-70
2021/12/25 07:07:17;;;;;;;2.03;0.57;;;-3.80;99.90;;;;;;5023125;28;20056;-70
2021/12/25 07:09:42;;;;;;;3.58;0.38;;;-3.80;99.90;;;;;;5004026;28;20029;-70
2021/12/25 07:12:08;;;;;;;0.80;0.40;;;-3.80;99.90;;;;;;5002810;28;20285;-69
2021/12/25 07:14:34;;;;;;;3.65;0.57;;;-3.80;99.90;;;;;;5023328;28;20056;-69
2021/12/25 07:17:00;;;;;;;2.67;0.70;;;-3.80;99.90;;;;;;5000412;28;20046;-69
2021/12/25 07:19:25;;;;;;;0.93;0.40;;;-3.80;99.90;;;;;;5010670;28;20046;-69
2021/12/25 07:21:51;;;;;;;1.20;0.33;;;-3.80;99.90;;;;;;5004872;28;20080;-69
2021/12/25 07:24:16;;;;;;;3.03;0.60;;;-3.80;99.90;;;;;;5017714;28;20041;-69
2021/12/25 07:26:42;;;;;;;1.33;0.40;;;-3.90;99.90;;;;;;5004650;28;20041;-69
2021/12/25 07:29:08;;;;;;;0.97;0.37;;;-3.80;99.90;;;;;;5005434;28;20044;-69
2021/12/25 07:31:34;;;;;;;3.57;0.57;;;-3.90;99.90;;;;;;5023381;28;20300;-70
2021/12/25 07:34:02;;;;;;;3.30;0.60;;;-3.90;99.90;;;;;;5019989;28;20045;-69
2021/12/25 07:36:27;;;;;;;1.02;0.70;;;-3.80;99.90;;;;;;5003428;28;20091;-70
2021/12/25 07:38:54;;;;;;;4.07;1.30;;;-3.80;99.90;;;;;;5020327;28;20045;-70
2021/12/25 07:41:20;;;;;;;0.80;0.43;;;-3.80;99.90;;;;;;5019870;28;20041;-69
2021/12/25 07:43:45;;;;;;;2.33;0.73;;;-3.90;99.90;;;;;;5022415;28;20025;-70
2021/12/25 07:46:11;;;;;;;1.77;0.43;;;-3.90;99.90;;;;;;5004995;28;20200;-69
2021/12/25 07:48:36;;;;;;;1.53;0.60;;;-3.90;99.90;;;;;;5018856;28;20467;-70
2021/12/25 07:51:03;;;;;;;1.50;0.50;;;-3.80;99.90;;;;;;5006245;28;20038;-69
2021/12/25 07:53:32;;;;;;;4.00;0.73;;;-3.90;99.90;;;;;;5006215;28;20041;-69
2021/12/25 07:55:58;;;;;;;1.85;0.50;;;-3.90;99.90;;;;;;4992275;28;20437;-70
2021/12/25 07:58:24;;;;;;;1.73;0.60;;;-3.80;99.90;;;;;;5018940;28;20112;-69
2021/12/25 08:00:50;;;;;;;1.25;0.50;;;-3.80;99.90;;;;;;5024898;28;20060;-69
2021/12/25 08:03:16;;;;;;;6.17;0.93;;;-3.80;99.90;;;;;;5007051;28;20494;-70
2021/12/25 08:05:43;;;;;;;3.20;0.50;;;-3.80;99.90;;;;;;5003081;28;20041;-69
2021/12/25 08:08:10;;;;;;;1.27;0.43;;;-3.80;99.90;;;;;;5021120;28;20053;-70
2021/12/25 08:10:36;;;;;;;3.30;0.30;;;-3.80;99.90;;;;;;5006542;28;20045;-70
2021/12/25 08:13:02;;;;;;;0.73;0.30;;;-3.80;99.90;;;;;;5024831;28;20030;-70
2021/12/25 08:15:30;;;;;;;6.70;0.93;;;-3.80;99.90;;;;;;5021833;28;20214;-69
2021/12/25 08:17:57;;;;;;;0.57;0.30;;;-3.80;99.90;;;;;;5021489;28;20042;-69
2021/12/25 08:20:24;;;;;;;1.55;0.40;;;-3.70;99.90;;;;;;5023763;28;20041;-69
2021/12/25 08:22:50;;;;;;;1.67;0.43;;;-3.80;99.90;;;;;;5022584;28;20052;-69
2021/12/25 08:25:16;;;;;;;0.85;0.43;;;-3.70;99.90;;;;;;5004124;28;20041;-69
2021/12/25 08:27:44;;;;;;;2.53;0.25;;;-3.70;99.90;;;;;;5000341;28;20049;-69
2021/12/25 08:30:13;;;;;;;2.85;1.13;;;-3.70;99.90;;;;;;5002170;28;20046;-69
2021/12/25 08:32:40;;;;;;;2.20;0.75;;;-3.70;99.90;;;;;;5023306;28;20445;-69
2021/12/25 08:35:10;;;;;;;1.88;0.60;;;-3.70;99.90;;;;;;5003472;28;20041;-69
2021/12/25 08:37:35;;;;;;;3.95;0.63;;;-3.60;99.90;;;;;;4999762;28;20072;-70
2021/12/25 08:40:04;;;;;;;2.90;0.60;;;-3.60;99.90;;;;;;5018530;28;20034;-69
2021/12/25 08:42:29;;;;;;;4.55;0.65;;;-3.70;99.90;;;;;;5003418;28;20041;-69
2021/12/25 08:47:24;;;;;;;0.73;0.40;;;-3.60;99.90;;;;;;5004351;28;20105;-69
2021/12/25 08:49:50;;;;;;;1.00;0.30;;;-3.60;99.90;;;;;;5018687;28;20434;-69
2021/12/25 08:52:17;;;;;;;0.50;0.30;;;-3.60;99.90;;;;;;5028057;28;20033;-70
2021/12/25 08:54:45;;;;;;;2.20;0.50;;;-3.50;99.90;;;;;;5007912;28;20046;-70
2021/12/25 08:57:11;;;;;;;1.38;0.50;;;-3.50;99.90;;;;;;4991628;28;20506;-69
2021/12/25 08:59:38;;;;;;;1.92;0.68;;;-3.50;99.90;;;;;;5012209;28;20049;-70
2021/12/25 09:02:09;;;;;;;0.63;0.28;;;-3.50;99.90;;;;;;5027820;28;20394;-69
2021/12/25 09:04:36;;;;;;;2.60;0.65;;;-3.40;99.90;;;;;;5006253;28;20625;-70
2021/12/25 09:07:02;;;;;;;1.48;0.63;;;-3.40;99.90;;;;;;5025303;28;20069;-69
2021/12/25 09:09:28;;;;;;;1.30;0.73;;;-3.40;99.90;;;;;;5026996;28;20478;-70
2021/12/25 09:11:54;;;;;;;1.37;0.40;;;-3.30;99.90;;;;;;5023911;28;20038;-69
2021/12/25 09:14:20;;;;;;;2.03;0.80;;;-3.30;99.90;;;;;;5012659;28;20033;-70
2021/12/25 09:16:45;;;;;;;2.60;0.50;;;-3.30;99.90;;;;;;5026682;28;20120;-70
2021/12/25 09:19:11;;;;;;;2.53;0.47;;;-3.30;99.90;;;;;;5021408;28;20124;-70
2021/12/25 09:21:36;;;;;;;3.97;0.67;;;-3.30;99.90;;;;;;5015132;28;20477;-69
2021/12/25 09:24:27;;;;;;;3.47;0.63;;;-3.20;99.90;;;;;;5051441;22;20042;-84
2021/12/25 09:26:53;;;;;;;0.88;0.47;;;-3.20;99.90;;;;;;5021309;28;20156;-84
2021/12/25 09:30:25;;;;;;;2.33;0.80;;;-3.20;99.90;;;;;;5023457;28;20061;-84
2021/12/25 09:33:13;;;;;;;1.55;0.68;;;-3.20;99.90;;;;;;5043236;22;20047;-67
2021/12/25 09:35:38;;;;;;;3.10;0.65;;;-3.10;99.90;;;;;;5020457;28;20505;-67
2021/12/25 09:38:04;;;;;;;2.80;0.73;;;-3.10;99.90;;;;;;5017644;28;20095;-67
2021/12/25 09:40:29;;;;;;;1.40;0.60;;;-3.00;99.90;;;;;;5011709;28;20135;-67
2021/12/25 09:42:55;;;;;;;2.90;0.57;;;-3.00;99.90;;;;;;5027469;28;20060;-67
2021/12/25 09:45:22;;;;;;;1.95;0.55;;;-2.90;99.90;;;;;;5032978;28;20034;-67
2021/12/25 09:47:48;;;;;;;1.52;0.63;;;-2.90;99.90;;;;;;5012699;28;20049;-67
2021/12/25 09:50:14;;;;;;;2.73;0.80;;;-2.80;99.90;;;;;;5015665;28;20375;-68
2021/12/25 09:52:41;;;;;;;1.92;0.70;;;-2.70;99.90;;;;;;5031349;28;20065;-67
2021/12/25 09:55:09;;;;;;;1.48;0.45;;;-2.70;99.90;;;;;;4997487;28;20064;-67
2021/12/25 09:57:35;;;;;;;1.13;0.35;;;-2.60;98.90;;;;;;5031841;28;20091;-67
2021/12/25 10:00:07;;;;;;;2.53;0.68;;;-2.60;99.40;;;;;;5031939;28;20041;-72
2021/12/25 10:02:42;;;;;;;6.15;1.27;;;-2.50;98.80;;;;;;5010349;28;20041;-69
2021/12/25 10:05:10;;;;;;;2.85;0.90;;;-2.40;99.30;;;;;;5023682;28;20053;-69
2021/12/25 10:07:35;;;;;;;2.03;0.70;;;-2.40;97.80;;;;;;4989971;28;20099;-69
2021/12/25 10:10:13;;;;;;;3.73;0.60;;;-2.30;97.00;;;;;;5027752;28;20033;-69
2021/12/25 10:12:43;;;;;;;5.25;0.55;;;-2.30;99.00;;;;;;5009502;28;20037;-69
2021/12/25 10:15:14;;;;;;;3.33;1.23;;;-2.20;97.70;;;;;;5026940;28;20124;-69
2021/12/25 10:17:45;;;;;;;4.95;1.00;;;-2.20;96.50;;;;;;5027969;28;20056;-69
2021/12/25 10:20:18;;;;;;;0.70;0.40;;;-2.10;98.40;;;;;;5027601;28;20037;-69
2021/12/25 10:23:15;;;;;;;2.17;0.90;;;-2.00;98.00;;;;;;5004758;28;20052;-69
2021/12/25 10:25:48;;;;;;;6.50;0.90;;;-2.00;98.00;;;;;;5006728;28;20041;-69
2021/12/25 10:28:17;;;;;;;3.33;0.70;;;-1.90;98.40;;;;;;5027881;28;20084;-69
2021/12/25 10:30:58;;;;;;;3.97;1.48;;;-1.80;98.10;;;;;;5009685;28;20120;-69
2021/12/25 10:33:47;;;;;;;2.00;0.98;;;-1.80;97.50;;;;;;5010476;28;20516;-69
2021/12/25 10:36:33;;;;;;;2.25;0.75;;;-1.70;97.70;;;;;;5008335;28;20052;-69
2021/12/25 10:39:07;;;;;;;1.33;0.52;;;-1.70;97.50;;;;;;5025087;28;20045;-69
2021/12/25 10:41:37;;;;;;;4.07;0.60;;;-1.60;97.70;;;;;;5022111;28;20046;-69
2021/12/25 10:44:22;;;;;;;4.53;0.90;;;-1.50;98.50;;;;;;5002478;28;20038;-69
2021/12/25 10:46:55;;;;;;;3.97;0.60;;;-1.50;97.80;;;;;;5013807;28;20046;-69
2021/12/25 10:49:42;;;;;;;3.55;0.82;;;-1.40;95.80;;;;;;4999095;28;20212;-69
2021/12/25 10:52:16;;;;;;;3.97;0.73;;;-1.30;95.40;;;;;;5005911;28;20414;-69
2021/12/25 10:54:48;;;;;;;3.40;0.82;;;-1.30;95.60;;;;;;5008001;28;20047;-71
2021/12/25 10:57:39;;;;;;;2.05;0.50;;;-1.30;93.90;;;;;;5018512;28;20461;-71
2021/12/25 11:00:15;;;;;;;3.00;1.10;;;-1.20;94.70;;;;;;5005306;28;20049;-71
2021/12/25 11:02:49;;;;;;;2.42;0.93;;;-1.20;94.20;;;;;;5007822;28;20045;-71
2021/12/25 11:05:15;;;;;;;0.65;0.30;;;-1.10;94.20;;;;;;5001710;28;20045;-71
2021/12/25 11:07:41;;;;;;;3.10;0.80;;;-1.10;93.60;;;;;;5010695;28;20723;-68
2021/12/25 11:10:16;;;;;;;1.23;0.50;;;-1.10;94.00;;;;;;5007509;28;20610;-68
2021/12/25 11:12:41;;;;;;;1.55;0.60;;;-1.00;94.80;;;;;;5027379;28;20060;-68
2021/12/25 11:15:14;;;;;;;1.17;0.60;;;-1.00;94.20;;;;;;5009399;28;20033;-68
2021/12/25 11:17:42;;;;;;;2.30;1.17;;;-0.90;95.30;;;;;;5025953;28;20481;-68
2021/12/25 11:20:18;;;;;;;2.25;0.50;;;-0.90;95.00;;;;;;4986480;28;20052;-68
2021/12/25 11:22:52;;;;;;;1.23;0.47;;;-0.80;94.10;;;;;;5029736;28;20038;-68
2021/12/25 11:25:20;;;;;;;5.63;1.17;;;-0.80;94.50;;;;;;5003012;28;20045;-68
2021/12/25 11:27:47;;;;;;;4.25;1.00;;;-0.80;93.70;;;;;;5008303;28;20540;-68
2021/12/25 11:30:14;;;;;;;3.42;0.60;;;-0.70;94.50;;;;;;5008754;28;20064;-69
2021/12/25 11:32:40;;;;;;;3.30;0.80;;;-0.70;94.60;;;;;;5008709;28;20108;-68
2021/12/25 11:35:05;;;;;;;0.97;0.50;;;-0.70;93.40;;;;;;5022825;28;20116;-68
2021/12/25 11:37:31;;;;;;;3.23;0.87;;;-0.60;94.60;;;;;;5025072;28;20026;-68
2021/12/25 11:39:58;;;;;;;3.93;0.90;;;-0.60;92.40;;;;;;5022281;28;20318;-68
2021/12/25 11:42:28;;;;;;;3.42;0.60;;;-0.60;92.20;;;;;;5009989;28;20466;-68
2021/12/25 11:44:55;;;;;;;2.05;0.47;;;-0.60;91.20;;;;;;5024406;28;20390;-68
2021/12/25 11:47:42;;;;;;;3.42;0.73;;;-0.50;92.20;;;;;;5007601;28;20148;-68
2021/12/25 11:50:22;;;;;;;3.47;0.50;;;-0.40;92.10;;;;;;5024860;28;20041;-68
2021/12/25 11:53:13;;;;;;;2.05;0.60;;;-0.40;91.70;;;;;;5005901;28;20076;-68
2021/12/25 11:58:52;;;;;;;5.53;0.90;;;-0.30;91.70;;;;;;5020772;28;20080;-68
2021/12/25 12:01:35;;;;;;;3.60;0.65;;;-0.30;92.90;;;;;;5013787;28;20042;-68
2021/12/25 12:04:00;;;;;;;1.65;0.60;;;-0.20;92.80;;;;;;5011346;28;20043;-68
2021/12/25 12:06:47;;;;;;;2.33;0.60;;;-0.20;92.40;;;;;;5003663;28;20159;-68
2021/12/25 12:09:26;;;;;;;3.03;0.77;;;-0.20;90.90;;;;;;5013179;28;20045;-68
2021/12/25 12:12:19;;;;;;;1.42;0.32;;;-0.20;91.40;;;;;;5006060;28;20044;-69
2021/12/25 12:15:03;;;;;;;1.52;0.60;;;-0.20;91.00;;;;;;5010092;28;20065;-67
2021/12/25 12:17:31;;;;;;;2.17;0.90;;;-0.10;91.20;;;;;;4999505;28;20036;-68
2021/12/25 12:20:00;;;;;;;2.97;0.70;;;-0.10;90.80;;;;;;4993584;28;20443;-68
2021/12/25 12:22:46;;;;;;;1.95;0.70;;;-0.10;90.70;;;;;;4999085;28;20045;-68
2021/12/25 12:28:00;;;;;;;1.58;0.43;;;0.00;88.10;;;;;;5021886;28;20060;-68
2021/12/25 12:30:32;;;;;;;3.78;0.55;;;0.00;90.20;;;;;;5008515;28;20041;-68
2021/12/25 12:33:20;;;;;;;3.42;0.90;;;0.00;91.30;;;;;;5004347;28;20037;-68
2021/12/25 12:35:47;;;;;;;2.05;0.70;;;0.00;91.30;;;;;;4997911;28;20045;-68
2021/12/25 12:38:44;;;;;;;0.77;0.40;;;0.00;88.70;;;;;;4996919;28;20048;-68
2021/12/25 12:41:22;;;;;;;2.03;0.75;;;0.00;90.00;;;;;;5000442;28;20075;-68
2021/12/25 12:43:58;;;;;;;3.00;0.32;;;0.00;89.50;;;;;;5004168;28;20052;-75
2021/12/25 12:46:48;;;;;;;1.38;0.52;;;0.10;90.10;;;;;;5010521;28;20107;-68
2021/12/25 12:49:16;;;;;;;1.65;1.08;;;0.10;90.20;;;;;;5020671;28;20037;-68
2021/12/25 12:51:42;;;;;;;0.85;0.40;;;0.10;87.00;;;;;;5018156;28;20052;-68
2021/12/25 12:54:08;;;;;;;2.47;1.10;;;0.00;87.50;;;;;;5022135;28;20034;-68
2021/12/25 12:56:36;;;;;;;3.95;0.60;;;0.00;88.40;;;;;;5017123;28;20049;-68
2021/12/25 12:59:03;;;;;;;1.02;0.47;;;-0.10;84.60;;;;;;5006980;28;20125;-68
2021/12/25 13:01:29;;;;;;;1.77;0.50;;;-0.10;86.90;;;;;;5021689;28;20068;-68
2021/12/25 13:03:57;;;;;;;1.90;0.60;;;-0.20;87.90;;;;;;5025679;28;20073;-68
2021/12/25 13:06:29;;;;;;;1.25;0.63;;;-0.20;86.30;;;;;;5015834;28;20030;-68
2021/12/25 13:08:58;;;;;;;3.65;1.70;;;-0.30;86.90;;;;;;5010006;28;20049;-68
2021/12/25 13:11:27;;;;;;;7.43;0.68;;;-0.40;85.00;;;;;;5021679;28;20299;-68
2021/12/25 13:14:01;;;;;;;7.00;1.08;;;-0.50;86.40;;;;;;5024506;28;20041;-69
2021/12/25 13:16:44;;;;;;;2.25;1.08;;;-0.60;84.60;;;;;;5007957;28;20037;-68
2021/12/25 13:19:09;;;;;;;1.35;0.45;;;-0.60;86.40;;;;;;5006729;28;20048;-68
2021/12/25 13:21:36;;;;;;;2.90;1.80;;;-0.60;86.00;;;;;;5006733;28;20041;-68
2021/12/25 13:24:09;;;;;;;4.68;0.70;;;-0.70;86.70;;;;;;5017579;28;20111;-68
2021/12/25 13:26:40;;;;;;;2.13;0.60;;;-0.70;84.90;;;;;;5022422;28;20033;-68
2021/12/25 13:29:14;;;;;;;3.47;0.80;;;-0.70;86.70;;;;;;5011623;28;20044;-68
2021/12/25 13:31:42;;;;;;;2.13;1.10;;;-0.70;86.10;;;;;;4970627;28;20044;-68
2021/12/25 13:34:15;;;;;;;2.30;1.02;;;-0.80;84.90;;;;;;5002287;28;20038;-68
2021/12/25 13:36:46;;;;;;;3.78;1.13;;;-0.90;84.30;;;;;;5002771;28;20041;-68
2021/12/25 13:39:16;;;;;;;3.20;1.00;;;-0.80;85.50;;;;;;5026747;28;20050;-68
2021/12/25 13:41:45;;;;;;;3.90;0.98;;;-0.90;85.30;;;;;;5003390;28;20056;-68
2021/12/25 13:44:24;;;;;;;2.20;1.27;;;-0.90;86.40;;;;;;5012379;28;20045;-72
2021/12/25 13:46:57;;;;;;;7.32;1.20;;;-0.90;85.80;;;;;;5012311;28;20278;-68
2021/12/25 13:49:45;;;;;;;2.13;0.77;;;-0.90;86.30;;;;;;5017723;28;20048;-69
2021/12/25 13:52:19;;;;;;;2.47;0.70;;;-0.90;86.50;;;;;;5024133;28;20399;-69
2021/12/25 13:54:55;;;;;;;2.08;1.02;;;-1.00;87.60;;;;;;5009475;28;20446;-69
2021/12/25 13:57:21;;;;;;;3.40;0.70;;;-1.00;88.70;;;;;;5026259;28;20041;-69
2021/12/25 13:59:53;;;;;;;3.90;0.80;;;-0.90;87.90;;;;;;5023126;28;20406;-69
2021/12/25 14:02:20;;;;;;;3.70;0.98;;;-1.00;87.40;;;;;;5003280;28;20081;-69
2021/12/25 14:04:51;;;;;;;2.97;0.68;;;-1.00;87.70;;;;;;5005007;28;20225;-69
2021/12/25 14:07:19;;;;;;;1.60;0.65;;;-1.00;87.60;;;;;;5006463;28;20084;-69
2021/12/25 14:09:55;;;;;;;4.32;0.68;;;-1.10;88.00;;;;;;5025229;28;20033;-69
2021/12/25 14:12:22;;;;;;;1.20;0.57;;;-1.10;87.30;;;;;;5020960;28;20061;-69
2021/12/25 14:14:48;;;;;;;1.65;0.50;;;-1.10;86.30;;;;;;5009162;28;20049;-69
2021/12/25 14:17:14;;;;;;;3.30;0.80;;;-1.00;86.50;;;;;;5021013;28;20052;-69
2021/12/25 14:19:40;;;;;;;3.47;0.90;;;-1.10;87.30;;;;;;5007328;28;20494;-69
2021/12/25 14:22:06;;;;;;;5.37;1.63;;;-1.20;88.10;;;;;;5023507;28;20029;-69
2021/12/25 14:24:44;;;;;;;5.50;1.23;;;-1.20;88.50;;;;;;5015400;28;20037;-69
2021/12/25 14:27:15;;;;;;;2.92;0.95;;;-1.20;87.00;;;;;;5008673;28;20463;-70
2021/12/25 14:29:41;;;;;;;4.00;1.52;;;-1.20;88.30;;;;;;5005960;28;20132;-69
2021/12/25 14:32:25;;;;;;;2.33;1.00;;;-1.30;87.20;;;;;;5009426;28;20116;-69